sensor_id;sensor_type;location;lat;lon;timestamp;pressure;altitude;pressure_sealevel;temperature;humidity
40490;BME280;26196;52.302;10.572;2023-02-16T00:02:40;101454.69;;;10.93;48.29
40490;BME280;26196;52.302;10.572;2023-02-16T00:06:41;101465.13;;;10.96;47.93
40490;BME280;26196;52.302;10.572;2023-02-16T00:10:41;101454.66;;;10.94;47.93
40490;BME280;26196;52.302;10.572;2023-02-16T00:15:16;101469.47;;;10.97;48.16
40490;BME280;26196;52.302;10.572;2023-02-16T00:19:30;101461.59;;;10.97;47.97
40490;BME280;26196;52.302;10.572;2023-02-16T00:23:32;101470.41;;;10.91;48.10
40490;BME280;26196;52.302;10.572;2023-02-16T00:27:33;101468.66;;;10.95;47.79
40490;BME280;26196;52.302;10.572;2023-02-16T00:32:09;101467.78;;;10.93;47.91
40490;BME280;26196;52.302;10.572;2023-02-16T00:36:11;101466.09;;;10.90;48.14
40490;BME280;26196;52.302;10.572;2023-02-16T00:40:13;101473.03;;;10.91;47.96
40490;BME280;26196;52.302;10.572;2023-02-16T00:44:20;101469.56;;;10.92;47.93
40490;BME280;26196;52.302;10.572;2023-02-16T00:48:22;101461.69;;;10.91;47.89
40490;BME280;26196;52.302;10.572;2023-02-16T00:52:37;101465.22;;;10.90;48.21
40490;BME280;26196;52.302;10.572;2023-02-16T00:56:39;101468.66;;;10.93;48.37
40490;BME280;26196;52.302;10.572;2023-02-16T01:00:51;101454.75;;;10.87;48.57
40490;BME280;26196;52.302;10.572;2023-02-16T01:04:53;101466.09;;;10.90;48.36
40490;BME280;26196;52.302;10.572;2023-02-16T01:08:55;101465.22;;;10.90;48.32
40490;BME280;26196;52.302;10.572;2023-02-16T01:13:21;101459.94;;;10.91;48.27
40490;BME280;26196;52.302;10.572;2023-02-16T01:17:23;101447.78;;;10.87;48.28
40490;BME280;26196;52.302;10.572;2023-02-16T01:21:23;101446.84;;;10.91;48.39
40490;BME280;26196;52.302;10.572;2023-02-16T01:25:23;101445.13;;;10.90;48.55
40490;BME280;26196;52.302;10.572;2023-02-16T01:29:24;101431.22;;;10.85;48.46
40490;BME280;26196;52.302;10.572;2023-02-16T01:33:24;101432.00;;;10.92;48.37
40490;BME280;26196;52.302;10.572;2023-02-16T01:37:25;101428.50;;;10.91;48.43
40490;BME280;26196;52.302;10.572;2023-02-16T01:46:06;101412.84;;;10.87;48.49
40490;BME280;26196;52.302;10.572;2023-02-16T01:50:24;101423.31;;;10.88;48.45
40490;BME280;26196;52.302;10.572;2023-02-16T01:58:42;101407.63;;;10.87;48.20
40490;BME280;26196;52.302;10.572;2023-02-16T02:02:55;101402.44;;;10.84;48.20
40490;BME280;26196;52.302;10.572;2023-02-16T02:07:33;101401.63;;;10.79;48.73
40490;BME280;26196;52.302;10.572;2023-02-16T02:11:44;101396.38;;;10.80;48.39
40490;BME280;26196;52.302;10.572;2023-02-16T02:15:45;101404.22;;;10.80;48.22
40490;BME280;26196;52.302;10.572;2023-02-16T02:20:05;101398.16;;;10.77;48.08
40490;BME280;26196;52.302;10.572;2023-02-16T02:28:15;101413.81;;;10.81;48.10
40490;BME280;26196;52.302;10.572;2023-02-16T02:36:46;101398.09;;;10.81;48.29
40490;BME280;26196;52.302;10.572;2023-02-16T02:41:20;101401.63;;;10.80;48.45
40490;BME280;26196;52.302;10.572;2023-02-16T02:45:29;101398.13;;;10.78;48.07
40490;BME280;26196;52.302;10.572;2023-02-16T02:49:31;101392.91;;;10.78;48.25
40490;BME280;26196;52.302;10.572;2023-02-16T02:53:43;101385.94;;;10.77;47.93
40490;BME280;26196;52.302;10.572;2023-02-16T02:58:06;101382.47;;;10.75;48.11
40490;BME280;26196;52.302;10.572;2023-02-16T03:02:27;101389.47;;;10.73;48.36
40490;BME280;26196;52.302;10.572;2023-02-16T03:06:37;101388.63;;;10.71;48.34
40490;BME280;26196;52.302;10.572;2023-02-16T03:10:44;101384.38;;;10.64;48.40
40490;BME280;26196;52.302;10.572;2023-02-16T03:15:16;101388.69;;;10.68;48.22
40490;BME280;26196;52.302;10.572;2023-02-16T03:19:17;101366.97;;;10.58;48.26
40490;BME280;26196;52.302;10.572;2023-02-16T03:23:38;101382.56;;;10.69;48.21
40490;BME280;26196;52.302;10.572;2023-02-16T03:28:00;101381.72;;;10.65;48.10
40490;BME280;26196;52.302;10.572;2023-02-16T03:32:36;101380.91;;;10.62;47.76
40490;BME280;26196;52.302;10.572;2023-02-16T03:36:37;101377.44;;;10.61;47.94
40490;BME280;26196;52.302;10.572;2023-02-16T03:40:39;101372.22;;;10.60;48.35
40490;BME280;26196;52.302;10.572;2023-02-16T03:44:41;101382.69;;;10.61;48.01
40490;BME280;26196;52.302;10.572;2023-02-16T03:49:16;101388.72;;;10.66;48.26
40490;BME280;26196;52.302;10.572;2023-02-16T03:53:17;101372.22;;;10.58;48.18
40490;BME280;26196;52.302;10.572;2023-02-16T03:57:18;101379.97;;;10.66;48.06
40490;BME280;26196;52.302;10.572;2023-02-16T04:01:18;101391.34;;;10.65;47.87
40490;BME280;26196;52.302;10.572;2023-02-16T04:10:15;101377.34;;;10.69;48.25
40490;BME280;26196;52.302;10.572;2023-02-16T04:14:16;101366.94;;;10.63;48.14
40490;BME280;26196;52.302;10.572;2023-02-16T04:18:16;101379.91;;;10.70;48.25
40490;BME280;26196;52.302;10.572;2023-02-16T04:22:16;101382.53;;;10.72;48.24
40490;BME280;26196;52.302;10.572;2023-02-16T04:26:17;101377.28;;;10.72;48.02
40490;BME280;26196;52.302;10.572;2023-02-16T04:30:20;101384.25;;;10.75;48.16
40490;BME280;26196;52.302;10.572;2023-02-16T04:34:21;101374.63;;;10.75;48.31
40490;BME280;26196;52.302;10.572;2023-02-16T04:38:21;101373.78;;;10.73;48.58
40490;BME280;26196;52.302;10.572;2023-02-16T04:42:56;101376.38;;;10.73;48.21
40490;BME280;26196;52.302;10.572;2023-02-16T04:46:56;101370.28;;;10.74;48.42
40490;BME280;26196;52.302;10.572;2023-02-16T04:51:33;101372.00;;;10.73;48.41
40490;BME280;26196;52.302;10.572;2023-02-16T04:56:08;101368.53;;;10.75;48.15
40490;BME280;26196;52.302;10.572;2023-02-16T05:00:43;101376.38;;;10.73;47.90
40490;BME280;26196;52.302;10.572;2023-02-16T05:05:21;101371.16;;;10.73;48.18
40490;BME280;26196;52.302;10.572;2023-02-16T05:09:21;101358.91;;;10.73;48.03
40490;BME280;26196;52.302;10.572;2023-02-16T05:13:58;101357.19;;;10.72;48.22
40490;BME280;26196;52.302;10.572;2023-02-16T05:18:17;101365.97;;;10.68;48.53
40490;BME280;26196;52.302;10.572;2023-02-16T05:26:55;101367.72;;;10.68;48.37
40490;BME280;26196;52.302;10.572;2023-02-16T05:30:55;101364.31;;;10.64;48.05
40490;BME280;26196;52.302;10.572;2023-02-16T05:34:55;101340.00;;;10.55;48.25
40490;BME280;26196;52.302;10.572;2023-02-16T05:38:56;101347.69;;;10.67;48.41
40490;BME280;26196;52.302;10.572;2023-02-16T05:42:56;101358.97;;;10.70;48.63
40490;BME280;26196;52.302;10.572;2023-02-16T05:47:31;101356.34;;;10.70;48.21
40490;BME280;26196;52.302;10.572;2023-02-16T05:52:08;101346.78;;;10.69;48.48
40490;BME280;26196;52.302;10.572;2023-02-16T05:56:09;101351.13;;;10.70;48.50
40490;BME280;26196;52.302;10.572;2023-02-16T06:00:09;101352.06;;;10.66;48.24
40490;BME280;26196;52.302;10.572;2023-02-16T06:04:11;101365.97;;;10.70;48.61
40490;BME280;26196;52.302;10.572;2023-02-16T06:08:12;101370.31;;;10.71;48.42
40490;BME280;26196;52.302;10.572;2023-02-16T06:12:12;101372.06;;;10.72;48.54
40490;BME280;26196;52.302;10.572;2023-02-16T06:16:50;101374.69;;;10.70;48.81
40490;BME280;26196;52.302;10.572;2023-02-16T06:21:24;101375.53;;;10.72;48.42
40490;BME280;26196;52.302;10.572;2023-02-16T06:25:25;101365.75;;;10.85;48.79
40490;BME280;26196;52.302;10.572;2023-02-16T06:29:25;101378.63;;;10.99;48.79
40490;BME280;26196;52.302;10.572;2023-02-16T06:33:25;101368.09;;;11.04;48.79
40490;BME280;26196;52.302;10.572;2023-02-16T06:37:25;101374.88;;;11.17;48.99
40490;BME280;26196;52.302;10.572;2023-02-16T06:41:26;101373.16;;;11.16;48.96
40490;BME280;26196;52.302;10.572;2023-02-16T06:45:39;101367.00;;;11.19;49.13
40490;BME280;26196;52.302;10.572;2023-02-16T06:49:39;101371.19;;;11.29;48.97
40490;BME280;26196;52.302;10.572;2023-02-16T06:54:16;101375.47;;;11.33;49.08
40490;BME280;26196;52.302;10.572;2023-02-16T06:58:51;101384.38;;;11.24;49.31
40490;BME280;26196;52.302;10.572;2023-02-16T07:02:52;101381.81;;;11.20;48.99
40490;BME280;26196;52.302;10.572;2023-02-16T07:07:26;101388.03;;;11.12;49.07
40490;BME280;26196;52.302;10.572;2023-02-16T07:11:27;101381.94;;;11.12;48.77
40490;BME280;26196;52.302;10.572;2023-02-16T07:16:01;101375.91;;;11.05;48.91
40490;BME280;26196;52.302;10.572;2023-02-16T07:20:36;101380.25;;;11.08;48.78
40490;BME280;26196;52.302;10.572;2023-02-16T07:24:37;101379.22;;;11.18;48.71
40490;BME280;26196;52.302;10.572;2023-02-16T07:28:37;101374.19;;;11.06;48.72
40490;BME280;26196;52.302;10.572;2023-02-16T07:32:37;101376.81;;;11.06;48.72
40490;BME280;26196;52.302;10.572;2023-02-16T07:41:15;101381.88;;;11.15;48.90
40490;BME280;26196;52.302;10.572;2023-02-16T07:45:15;101383.81;;;11.04;48.65
40490;BME280;26196;52.302;10.572;2023-02-16T07:49:16;101383.81;;;11.04;48.59
40490;BME280;26196;52.302;10.572;2023-02-16T07:53:50;101386.38;;;11.07;49.10
40490;BME280;26196;52.302;10.572;2023-02-16T07:57:50;101388.09;;;11.08;49.18
40490;BME280;26196;52.302;10.572;2023-02-16T08:02:26;101382.03;;;11.06;49.16
40490;BME280;26196;52.302;10.572;2023-02-16T08:06:26;101391.59;;;11.08;49.38
40490;BME280;26196;52.302;10.572;2023-02-16T08:10:26;101389.84;;;11.09;48.77
40490;BME280;26196;52.302;10.572;2023-02-16T08:14:27;101392.53;;;11.06;48.80
40490;BME280;26196;52.302;10.572;2023-02-16T08:18:29;101391.44;;;11.19;48.79
40490;BME280;26196;52.302;10.572;2023-02-16T08:22:29;101394.84;;;11.24;48.76
40490;BME280;26196;52.302;10.572;2023-02-16T08:31:07;101379.22;;;11.18;48.65
40490;BME280;26196;52.302;10.572;2023-02-16T08:35:09;101386.28;;;11.13;48.93
40490;BME280;26196;52.302;10.572;2023-02-16T08:39:43;101378.34;;;11.19;48.94
40490;BME280;26196;52.302;10.572;2023-02-16T08:43:44;101380.91;;;11.22;48.63
40490;BME280;26196;52.302;10.572;2023-02-16T08:47:45;101391.44;;;11.19;48.70
40490;BME280;26196;52.302;10.572;2023-02-16T08:52:22;101392.41;;;11.12;48.41
40490;BME280;26196;52.302;10.572;2023-02-16T09:01:08;101382.00;;;11.09;48.41
40490;BME280;26196;52.302;10.572;2023-02-16T09:05:39;101380.25;;;11.08;48.42
40490;BME280;26196;52.302;10.572;2023-02-16T09:09:41;101373.28;;;11.08;48.34
40490;BME280;26196;52.302;10.572;2023-02-16T09:13:42;101375.88;;;11.08;48.70
40490;BME280;26196;52.302;10.572;2023-02-16T09:17:42;101387.22;;;11.09;48.52
40490;BME280;26196;52.302;10.572;2023-02-16T09:22:20;101382.03;;;11.06;48.32
40490;BME280;26196;52.302;10.572;2023-02-16T09:26:22;101385.53;;;11.05;48.67
40490;BME280;26196;52.302;10.572;2023-02-16T09:30:57;101382.00;;;11.09;48.53
40490;BME280;26196;52.302;10.572;2023-02-16T09:35:37;101382.84;;;11.09;48.63
40490;BME280;26196;52.302;10.572;2023-02-16T09:40:12;101381.94;;;11.12;48.89
40490;BME280;26196;52.302;10.572;2023-02-16T09:48:40;101368.09;;;11.04;48.74
40490;BME280;26196;52.302;10.572;2023-02-16T10:01:44;101312.56;;;10.80;49.38
40490;BME280;26196;52.302;10.572;2023-02-16T10:10:28;101367.13;;;11.11;49.28
40490;BME280;26196;52.302;10.572;2023-02-16T10:14:48;101363.53;;;11.15;49.09
40490;BME280;26196;52.302;10.572;2023-02-16T10:18:50;101370.59;;;11.11;49.75
40490;BME280;26196;52.302;10.572;2023-02-16T10:23:09;101363.59;;;11.13;49.57
40490;BME280;26196;52.302;10.572;2023-02-16T10:27:15;101375.72;;;11.19;49.71
40490;BME280;26196;52.302;10.572;2023-02-16T10:31:24;101376.63;;;11.16;49.75
40490;BME280;26196;52.302;10.572;2023-02-16T10:40:08;101370.47;;;11.19;50.59
40490;BME280;26196;52.302;10.572;2023-02-16T10:44:18;101372.19;;;11.20;50.39
40490;BME280;26196;52.302;10.572;2023-02-16T10:48:50;101373.91;;;11.23;50.95
40490;BME280;26196;52.302;10.572;2023-02-16T10:52:56;101371.22;;;11.27;51.19
40490;BME280;26196;52.302;10.572;2023-02-16T10:57:29;101375.59;;;11.27;51.21
40490;BME280;26196;52.302;10.572;2023-02-16T11:01:35;101377.31;;;11.29;51.42
40490;BME280;26196;52.302;10.572;2023-02-16T11:05:37;101355.56;;;11.23;51.72
40490;BME280;26196;52.302;10.572;2023-02-16T11:09:39;101370.22;;;11.34;52.58
40490;BME280;26196;52.302;10.572;2023-02-16T11:13:40;101360.66;;;11.30;52.72
40490;BME280;26196;52.302;10.572;2023-02-16T11:17:58;101364.19;;;11.29;53.33
40490;BME280;26196;52.302;10.572;2023-02-16T11:22:33;101356.28;;;11.31;53.66
40490;BME280;26196;52.302;10.572;2023-02-16T11:26:34;101347.44;;;11.36;53.59
40490;BME280;26196;52.302;10.572;2023-02-16T11:30:37;101343.91;;;11.39;53.46
40490;BME280;26196;52.302;10.572;2023-02-16T11:34:46;101335.25;;;11.35;53.66
40490;BME280;26196;52.302;10.572;2023-02-16T11:39:21;101338.59;;;11.44;53.71
40490;BME280;26196;52.302;10.572;2023-02-16T11:43:26;101335.91;;;11.47;53.18
40490;BME280;26196;52.302;10.572;2023-02-16T11:47:30;101327.28;;;11.42;53.12
40490;BME280;26196;52.302;10.572;2023-02-16T11:52:16;101358.53;;;11.54;53.21
40490;BME280;26196;52.302;10.572;2023-02-16T11:56:26;101348.03;;;11.54;53.71
40490;BME280;26196;52.302;10.572;2023-02-16T12:05:24;101353.22;;;11.57;54.26
40490;BME280;26196;52.302;10.572;2023-02-16T12:13:57;101341.81;;;11.59;54.70
40490;BME280;26196;52.302;10.572;2023-02-16T12:32:13;101318.00;;;11.70;54.67
40490;BME280;26196;52.302;10.572;2023-02-16T12:36:31;101330.25;;;11.71;54.86
40490;BME280;26196;52.302;10.572;2023-02-16T12:45:07;101337.16;;;11.75;55.05
40490;BME280;26196;52.302;10.572;2023-02-16T12:49:22;101334.50;;;11.77;55.17
40490;BME280;26196;52.302;10.572;2023-02-16T13:03:14;101329.13;;;11.83;54.83
40490;BME280;26196;52.302;10.572;2023-02-16T13:26:36;101321.09;;;11.94;55.51
40490;BME280;26196;52.302;10.572;2023-02-16T13:35:23;101301.78;;;11.98;54.80
40490;BME280;26196;52.302;10.572;2023-02-16T13:44:09;101284.25;;;12.00;54.87
40490;BME280;26196;52.302;10.572;2023-02-16T13:48:25;101278.06;;;12.02;54.55
40490;BME280;26196;52.302;10.572;2023-02-16T13:52:32;101271.09;;;12.01;54.35
40490;BME280;26196;52.302;10.572;2023-02-16T13:57:02;101272.69;;;12.09;54.59
40490;BME280;26196;52.302;10.572;2023-02-16T14:01:39;101276.22;;;12.08;55.35
40490;BME280;26196;52.302;10.572;2023-02-16T14:15:29;101257.75;;;12.12;55.00
40490;BME280;26196;52.302;10.572;2023-02-16T14:19:30;101261.19;;;12.14;54.72
40490;BME280;26196;52.302;10.572;2023-02-16T14:23:32;101257.69;;;12.15;54.76
40490;BME280;26196;52.302;10.572;2023-02-16T14:36:17;101248.75;;;12.22;54.70
40490;BME280;26196;52.302;10.572;2023-02-16T14:40:22;101250.50;;;12.23;54.41
40490;BME280;26196;52.302;10.572;2023-02-16T14:44:52;101246.97;;;12.24;54.36
40490;BME280;26196;52.302;10.572;2023-02-16T15:07:52;101229.28;;;12.33;56.49
40490;BME280;26196;52.302;10.572;2023-02-16T15:12:13;101218.78;;;12.33;57.09
40490;BME280;26196;52.302;10.572;2023-02-16T15:16:23;101222.41;;;12.29;57.53
40490;BME280;26196;52.302;10.572;2023-02-16T15:20:57;101221.47;;;12.30;57.01
40490;BME280;26196;52.302;10.572;2023-02-16T15:25:36;101225.88;;;12.29;57.10
40490;BME280;26196;52.302;10.572;2023-02-16T15:29:37;101220.63;;;12.29;57.56
40490;BME280;26196;52.302;10.572;2023-02-16T15:34:24;101227.56;;;12.32;57.56
40490;BME280;26196;52.302;10.572;2023-02-16T15:38:56;101214.44;;;12.32;58.16
40490;BME280;26196;52.302;10.572;2023-02-16T15:52:51;101200.38;;;12.34;57.88
40490;BME280;26196;52.302;10.572;2023-02-16T15:56:57;101208.25;;;12.36;58.45
40490;BME280;26196;52.302;10.572;2023-02-16T16:01:32;101192.53;;;12.33;57.95
40490;BME280;26196;52.302;10.572;2023-02-16T16:05:35;101209.94;;;12.37;57.69
40490;BME280;26196;52.302;10.572;2023-02-16T16:10:14;101196.81;;;12.37;58.08
40490;BME280;26196;52.302;10.572;2023-02-16T16:14:16;101183.69;;;12.37;57.69
40490;BME280;26196;52.302;10.572;2023-02-16T16:18:51;101185.28;;;12.44;57.42
40490;BME280;26196;52.302;10.572;2023-02-16T16:23:26;101192.25;;;12.45;57.31
40490;BME280;26196;52.302;10.572;2023-02-16T16:28:01;101190.47;;;12.47;57.46
40490;BME280;26196;52.302;10.572;2023-02-16T16:32:04;101199.16;;;12.49;57.38
40490;BME280;26196;52.302;10.572;2023-02-16T16:36:11;101183.53;;;12.43;57.11
40490;BME280;26196;52.302;10.572;2023-02-16T16:49:30;101203.41;;;12.55;56.53
40490;BME280;26196;52.302;10.572;2023-02-16T16:53:39;101204.25;;;12.55;56.86
40490;BME280;26196;52.302;10.572;2023-02-16T16:57:39;101209.41;;;12.60;55.79
40490;BME280;26196;52.302;10.572;2023-02-16T17:01:40;101211.97;;;12.61;56.58
40490;BME280;26196;52.302;10.572;2023-02-16T17:05:41;101213.72;;;12.62;56.08
40490;BME280;26196;52.302;10.572;2023-02-16T17:09:42;101209.31;;;12.64;55.73
40490;BME280;26196;52.302;10.572;2023-02-16T17:18:40;101217.19;;;12.64;56.72
40490;BME280;26196;52.302;10.572;2023-02-16T17:22:40;101209.31;;;12.64;56.21
40490;BME280;26196;52.302;10.572;2023-02-16T17:26:40;101214.47;;;12.67;56.37
40490;BME280;26196;52.302;10.572;2023-02-16T17:31:15;101204.81;;;12.68;56.40
40490;BME280;26196;52.302;10.572;2023-02-16T17:35:15;101211.75;;;12.70;56.08
40490;BME280;26196;52.302;10.572;2023-02-16T17:39:50;101209.13;;;12.70;56.04
40490;BME280;26196;52.302;10.572;2023-02-16T17:44:27;101200.34;;;12.72;55.93
40490;BME280;26196;52.302;10.572;2023-02-16T17:49:04;101199.47;;;12.73;55.94
40490;BME280;26196;52.302;10.572;2023-02-16T17:53:13;101204.75;;;12.71;56.33
40490;BME280;26196;52.302;10.572;2023-02-16T17:57:41;101199.38;;;12.76;55.62
40490;BME280;26196;52.302;10.572;2023-02-16T18:02:16;101193.28;;;12.75;55.79
40490;BME280;26196;52.302;10.572;2023-02-16T18:06:53;101194.97;;;12.78;55.62
40490;BME280;26196;52.302;10.572;2023-02-16T18:11:30;101187.88;;;12.80;55.35
40490;BME280;26196;52.302;10.572;2023-02-16T18:25:19;101174.59;;;12.86;54.80
40490;BME280;26196;52.302;10.572;2023-02-16T18:29:19;101168.50;;;12.85;54.75
40490;BME280;26196;52.302;10.572;2023-02-16T18:33:20;101170.09;;;12.91;54.85
40490;BME280;26196;52.302;10.572;2023-02-16T18:37:21;101151.91;;;12.83;54.27
40490;BME280;26196;52.302;10.572;2023-02-16T18:41:21;101160.47;;;12.90;54.59
40490;BME280;26196;52.302;10.572;2023-02-16T18:45:22;101168.34;;;12.90;54.34
40490;BME280;26196;52.302;10.572;2023-02-16T18:49:22;101151.94;;;12.82;53.70
40490;BME280;26196;52.302;10.572;2023-02-16T18:53:23;101152.75;;;12.84;54.24
40490;BME280;26196;52.302;10.572;2023-02-16T18:57:23;101169.25;;;12.90;53.85
40490;BME280;26196;52.302;10.572;2023-02-16T19:01:29;101151.03;;;12.83;54.43
40490;BME280;26196;52.302;10.572;2023-02-16T19:10:38;101153.41;;;12.92;54.10
40490;BME280;26196;52.302;10.572;2023-02-16T19:14:38;101154.31;;;12.91;54.83
40490;BME280;26196;52.302;10.572;2023-02-16T19:19:13;101150.69;;;12.95;53.98
40490;BME280;26196;52.302;10.572;2023-02-16T19:23:50;101154.25;;;12.94;53.65
40490;BME280;26196;52.302;10.572;2023-02-16T19:27:51;101151.63;;;12.94;53.83
40490;BME280;26196;52.302;10.572;2023-02-16T19:31:51;101133.41;;;12.88;54.14
40490;BME280;26196;52.302;10.572;2023-02-16T19:36:05;101148.97;;;12.94;54.04
40490;BME280;26196;52.302;10.572;2023-02-16T19:40:08;101142.81;;;12.95;53.59
40490;BME280;26196;52.302;10.572;2023-02-16T19:44:12;101141.00;;;12.97;54.06
40490;BME280;26196;52.302;10.572;2023-02-16T19:48:13;101146.34;;;12.96;53.85
40490;BME280;26196;52.302;10.572;2023-02-16T19:52:50;101133.13;;;12.97;54.11
40490;BME280;26196;52.302;10.572;2023-02-16T19:56:50;101130.56;;;12.96;53.83
40490;BME280;26196;52.302;10.572;2023-02-16T20:01:27;101113.81;;;12.98;53.71
40490;BME280;26196;52.302;10.572;2023-02-16T20:05:27;101112.94;;;12.99;53.74
40490;BME280;26196;52.302;10.572;2023-02-16T20:09:28;101115.56;;;12.99;53.69
40490;BME280;26196;52.302;10.572;2023-02-16T20:14:02;101117.28;;;13.00;54.50
40490;BME280;26196;52.302;10.572;2023-02-16T20:27:54;101111.94;;;13.03;54.22
40490;BME280;26196;52.302;10.572;2023-02-16T20:32:29;101100.63;;;13.01;54.82
40490;BME280;26196;52.302;10.572;2023-02-16T20:37:06;101094.44;;;13.02;54.01
40490;BME280;26196;52.302;10.572;2023-02-16T20:45:41;101082.25;;;13.00;54.20
40490;BME280;26196;52.302;10.572;2023-02-16T20:50:19;101085.66;;;13.03;54.79
40490;BME280;26196;52.302;10.572;2023-02-16T20:54:20;101075.88;;;13.08;54.22
40490;BME280;26196;52.302;10.572;2023-02-16T20:58:20;101070.59;;;13.08;54.43
40490;BME280;26196;52.302;10.572;2023-02-16T21:06:57;101073.25;;;13.08;54.00
40490;BME280;26196;52.302;10.572;2023-02-16T21:11:35;101069.72;;;13.09;53.86
40490;BME280;26196;52.302;10.572;2023-02-16T21:15:36;101043.78;;;12.97;54.36
40490;BME280;26196;52.302;10.572;2023-02-16T21:20:11;101029.25;;;12.85;54.60
40490;BME280;26196;52.302;10.572;2023-02-16T21:24:11;101061.88;;;13.08;54.06
40490;BME280;26196;52.302;10.572;2023-02-16T21:28:13;101052.31;;;13.05;54.99
40490;BME280;26196;52.302;10.572;2023-02-16T21:32:13;101053.09;;;13.09;54.92
40490;BME280;26196;52.302;10.572;2023-02-16T21:36:17;101044.31;;;13.10;54.62
40490;BME280;26196;52.302;10.572;2023-02-16T21:40:18;101045.16;;;13.10;55.08
40490;BME280;26196;52.302;10.572;2023-02-16T21:44:37;101045.16;;;13.10;54.80
40490;BME280;26196;52.302;10.572;2023-02-16T21:48:42;101046.00;;;13.11;54.94
40490;BME280;26196;52.302;10.572;2023-02-16T21:57:17;101035.47;;;13.12;55.29
40490;BME280;26196;52.302;10.572;2023-02-16T22:01:26;101036.19;;;13.18;54.53
40490;BME280;26196;52.302;10.572;2023-02-16T22:05:27;101026.53;;;13.18;54.45
40490;BME280;26196;52.302;10.572;2023-02-16T22:10:01;101040.59;;;13.17;54.84
40490;BME280;26196;52.302;10.572;2023-02-16T22:14:02;101031.03;;;13.14;54.63
40490;BME280;26196;52.302;10.572;2023-02-16T22:18:03;101035.44;;;13.14;54.72
40490;BME280;26196;52.302;10.572;2023-02-16T22:22:04;101024.97;;;13.11;54.93
40490;BME280;26196;52.302;10.572;2023-02-16T22:26:38;101024.94;;;13.12;54.30
40490;BME280;26196;52.302;10.572;2023-02-16T22:30:39;101021.50;;;13.10;54.51
40490;BME280;26196;52.302;10.572;2023-02-16T22:34:39;101018.03;;;13.08;55.17
40490;BME280;26196;52.302;10.572;2023-02-16T22:38:43;101020.75;;;13.07;55.14
40490;BME280;26196;52.302;10.572;2023-02-16T22:42:43;101032.97;;;13.08;54.62
40490;BME280;26196;52.302;10.572;2023-02-16T22:47:20;101024.31;;;13.04;55.31
40490;BME280;26196;52.302;10.572;2023-02-16T22:51:21;101017.25;;;13.06;55.45
40490;BME280;26196;52.302;10.572;2023-02-16T22:55:21;101004.16;;;13.05;54.47
40490;BME280;26196;52.302;10.572;2023-02-16T22:59:21;100993.75;;;13.00;54.54
40490;BME280;26196;52.302;10.572;2023-02-16T23:03:22;100999.66;;;13.08;54.69
40490;BME280;26196;52.302;10.572;2023-02-16T23:07:22;100998.75;;;13.09;54.33
40490;BME280;26196;52.302;10.572;2023-02-16T23:11:23;100996.25;;;13.05;54.95
40490;BME280;26196;52.302;10.572;2023-02-16T23:15:24;100994.50;;;13.05;54.41
40490;BME280;26196;52.302;10.572;2023-02-16T23:19:25;100996.22;;;13.06;54.55
40490;BME280;26196;52.302;10.572;2023-02-16T23:24:00;100978.63;;;13.08;54.78
40490;BME280;26196;52.302;10.572;2023-02-16T23:28:02;100977.88;;;13.05;54.47
40490;BME280;26196;52.302;10.572;2023-02-16T23:32:04;100973.47;;;13.05;54.01
40490;BME280;26196;52.302;10.572;2023-02-16T23:36:38;100964.75;;;13.03;54.55
40490;BME280;26196;52.302;10.572;2023-02-16T23:40:40;100969.00;;;13.09;54.45
40490;BME280;26196;52.302;10.572;2023-02-16T23:44:40;100952.44;;;13.05;54.73
40490;BME280;26196;52.302;10.572;2023-02-16T23:48:41;100945.41;;;13.06;54.32
40490;BME280;26196;52.302;10.572;2023-02-16T23:53:15;100932.28;;;13.06;54.56
40490;BME280;26196;52.302;10.572;2023-02-16T23:57:16;100924.34;;;13.07;54.36
